createdAt,value
2023-12-23T00:01:25.000Z,278.61
2023-12-23T00:03:31.000Z,278.6
2023-12-23T00:04:58.000Z,278.58
2023-12-23T00:07:04.000Z,278.6
2023-12-23T00:09:49.000Z,278.58
2023-12-23T00:11:16.000Z,278.56
2023-12-23T00:13:23.000Z,278.54
2023-12-23T00:14:49.000Z,278.53
2023-12-23T00:16:55.000Z,278.51
2023-12-23T00:18:22.000Z,278.53
2023-12-23T00:20:28.000Z,278.5
2023-12-23T00:21:55.000Z,278.51
2023-12-23T00:24:01.000Z,278.47
2023-12-23T00:25:27.000Z,278.47
2023-12-23T00:27:34.000Z,278.44
2023-12-23T00:29:00.000Z,278.42
2023-12-23T00:31:06.000Z,278.42
2023-12-23T00:32:33.000Z,278.4
2023-12-23T00:34:39.000Z,278.43
2023-12-23T00:36:05.000Z,278.42
2023-12-23T00:38:12.000Z,278.43
2023-12-23T00:39:38.000Z,278.44
2023-12-23T00:41:44.000Z,278.49
2023-12-23T00:43:11.000Z,278.47
2023-12-23T00:45:18.000Z,278.47
2023-12-23T00:48:03.000Z,278.44
2023-12-23T00:49:30.000Z,278.42
2023-12-23T00:51:36.000Z,278.43
2023-12-23T00:53:03.000Z,278.44
2023-12-23T00:55:09.000Z,278.42
2023-12-23T00:56:35.000Z,278.4
2023-12-23T00:58:41.000Z,278.37
2023-12-23T01:00:08.000Z,278.39
2023-12-23T01:02:14.000Z,278.39
2023-12-23T01:03:41.000Z,278.37
2023-12-23T01:05:47.000Z,278.42
2023-12-23T01:07:13.000Z,278.44
2023-12-23T01:09:19.000Z,278.46
2023-12-23T01:10:46.000Z,278.47
2023-12-23T01:12:52.000Z,278.44
2023-12-23T01:14:18.000Z,278.43
2023-12-23T01:16:25.000Z,278.44
2023-12-23T01:17:51.000Z,278.44
2023-12-23T01:19:58.000Z,278.42
2023-12-23T01:21:25.000Z,278.42
2023-12-23T01:23:31.000Z,278.44
2023-12-23T01:26:16.000Z,278.4
2023-12-23T01:27:43.000Z,278.46
2023-12-23T01:29:49.000Z,278.47
2023-12-23T01:31:15.000Z,278.44
2023-12-23T01:33:22.000Z,278.44
2023-12-23T01:34:49.000Z,278.4
2023-12-23T01:36:55.000Z,278.39
2023-12-23T01:38:21.000Z,278.39
2023-12-23T01:40:27.000Z,278.39
2023-12-23T01:41:54.000Z,278.44
2023-12-23T01:44:00.000Z,278.46
2023-12-23T01:45:27.000Z,278.47
2023-12-23T01:47:33.000Z,278.46
2023-12-23T01:49:00.000Z,278.53
2023-12-23T01:51:06.000Z,278.49
2023-12-23T01:52:32.000Z,278.49
2023-12-23T01:54:39.000Z,278.49
2023-12-23T01:56:05.000Z,278.46
2023-12-23T01:58:11.000Z,278.44
2023-12-23T01:59:38.000Z,278.43
2023-12-23T02:01:44.000Z,278.46
2023-12-23T02:04:30.000Z,278.44
2023-12-23T02:05:56.000Z,278.44
2023-12-23T02:08:03.000Z,278.43
2023-12-23T02:09:29.000Z,278.44
2023-12-23T02:11:35.000Z,278.43
2023-12-23T02:13:03.000Z,278.44
2023-12-23T02:15:19.000Z,278.44
2023-12-23T02:16:45.000Z,278.43
2023-12-23T02:18:52.000Z,278.44
2023-12-23T02:20:18.000Z,278.42
2023-12-23T02:22:24.000Z,278.4
2023-12-23T02:23:51.000Z,278.43
2023-12-23T02:25:57.000Z,278.4
2023-12-23T02:27:24.000Z,278.43
2023-12-23T02:29:30.000Z,278.44
2023-12-23T02:30:57.000Z,278.47
2023-12-23T02:33:04.000Z,278.46
2023-12-23T02:34:31.000Z,278.44
2023-12-23T02:36:37.000Z,278.43
2023-12-23T02:38:03.000Z,278.4
2023-12-23T02:40:09.000Z,278.4
2023-12-23T02:42:55.000Z,278.4
2023-12-23T02:44:21.000Z,278.43
2023-12-23T02:46:27.000Z,278.44
2023-12-23T02:47:54.000Z,278.43
2023-12-23T02:50:00.000Z,278.44
2023-12-23T02:51:27.000Z,278.43
2023-12-23T02:53:33.000Z,278.42
2023-12-23T02:54:59.000Z,278.4
2023-12-23T02:57:06.000Z,278.39
2023-12-23T02:58:32.000Z,278.43
2023-12-23T03:00:38.000Z,278.46
2023-12-23T03:02:05.000Z,278.49
2023-12-23T03:04:11.000Z,278.47
2023-12-23T03:05:37.000Z,278.49
2023-12-23T03:07:44.000Z,278.49
2023-12-23T03:09:10.000Z,278.46
2023-12-23T03:11:16.000Z,278.44
2023-12-23T03:12:43.000Z,278.44
2023-12-23T03:14:49.000Z,278.42
2023-12-23T03:16:15.000Z,278.42
2023-12-23T03:18:22.000Z,278.4
2023-12-23T03:21:07.000Z,278.32
2023-12-23T03:22:33.000Z,278.3
2023-12-23T03:24:40.000Z,278.29
2023-12-23T03:26:06.000Z,278.29
2023-12-23T03:28:12.000Z,278.25
2023-12-23T03:29:39.000Z,278.24
2023-12-23T03:31:45.000Z,278.22
2023-12-23T03:33:12.000Z,278.18
2023-12-23T03:35:18.000Z,278.17
2023-12-23T03:36:45.000Z,278.14
2023-12-23T03:38:51.000Z,278.13
2023-12-23T03:40:17.000Z,278.1
2023-12-23T03:42:24.000Z,278.1
2023-12-23T03:43:50.000Z,278.09
2023-12-23T03:45:57.000Z,278.1
2023-12-23T03:47:23.000Z,278.07
2023-12-23T03:49:30.000Z,278.03
2023-12-23T03:50:56.000Z,278.02
2023-12-23T03:53:02.000Z,278
2023-12-23T03:54:29.000Z,278
2023-12-23T03:56:35.000Z,277.99
2023-12-23T03:59:20.000Z,277.97
2023-12-23T04:00:47.000Z,277.96
2023-12-23T04:02:54.000Z,277.95
2023-12-23T04:04:20.000Z,277.91
2023-12-23T04:06:26.000Z,277.88
2023-12-23T04:07:53.000Z,277.85
2023-12-23T04:09:59.000Z,277.82
2023-12-23T04:11:25.000Z,277.79
2023-12-23T04:13:31.000Z,277.77
2023-12-23T04:14:58.000Z,277.72
2023-12-23T04:17:04.000Z,277.7
2023-12-23T04:18:31.000Z,277.7
2023-12-23T04:20:37.000Z,277.7
2023-12-23T04:22:03.000Z,277.68
2023-12-23T04:24:09.000Z,277.68
2023-12-23T04:25:36.000Z,277.67
2023-12-23T04:27:42.000Z,277.65
2023-12-23T04:29:09.000Z,277.65
2023-12-23T04:31:15.000Z,277.65
2023-12-23T04:32:42.000Z,277.64
2023-12-23T04:34:48.000Z,277.64
2023-12-23T04:37:35.000Z,277.67
2023-12-23T04:39:02.000Z,277.67
2023-12-23T04:41:08.000Z,277.68
2023-12-23T04:42:35.000Z,277.7
2023-12-23T04:44:41.000Z,277.7
2023-12-23T04:46:07.000Z,277.68
2023-12-23T04:48:13.000Z,277.71
2023-12-23T04:49:40.000Z,277.77
2023-12-23T04:51:46.000Z,277.78
2023-12-23T04:53:13.000Z,277.81
2023-12-23T04:55:20.000Z,277.81
2023-12-23T04:56:46.000Z,277.84
2023-12-23T04:58:52.000Z,277.85
2023-12-23T05:00:19.000Z,277.85
2023-12-23T05:02:25.000Z,277.89
2023-12-23T05:03:52.000Z,277.86
2023-12-23T05:05:58.000Z,277.89
2023-12-23T05:07:25.000Z,277.91
2023-12-23T05:09:31.000Z,277.91
2023-12-23T05:10:57.000Z,277.93
2023-12-23T05:13:03.000Z,277.95
2023-12-23T05:15:49.000Z,277.95
2023-12-23T05:17:15.000Z,277.95
2023-12-23T05:19:21.000Z,277.96
2023-12-23T05:20:48.000Z,277.96
2023-12-23T05:22:54.000Z,277.96
2023-12-23T05:24:21.000Z,277.95
2023-12-23T05:26:27.000Z,277.97
2023-12-23T05:27:54.000Z,278.02
2023-12-23T05:30:00.000Z,278.04
2023-12-23T05:31:26.000Z,278.07
2023-12-23T05:33:33.000Z,278.09
2023-12-23T05:34:59.000Z,278.1
2023-12-23T05:37:05.000Z,278.1
2023-12-23T05:38:32.000Z,278.1
2023-12-23T05:40:38.000Z,278.1
2023-12-23T05:42:05.000Z,278.13
2023-12-23T05:44:11.000Z,278.16
2023-12-23T05:45:37.000Z,278.2
2023-12-23T05:47:44.000Z,278.24
2023-12-23T05:49:10.000Z,278.25
2023-12-23T05:51:17.000Z,278.32
2023-12-23T05:54:02.000Z,278.39
2023-12-23T05:55:28.000Z,278.46
2023-12-23T05:57:35.000Z,278.51
2023-12-23T05:59:02.000Z,278.56
2023-12-23T06:01:08.000Z,278.64
2023-12-23T06:02:35.000Z,278.74
2023-12-23T06:04:41.000Z,278.82
2023-12-23T06:06:07.000Z,278.9
2023-12-23T06:08:14.000Z,279.02
2023-12-23T06:09:41.000Z,279.06
2023-12-23T06:11:47.000Z,279.09
2023-12-23T06:13:13.000Z,279.15
2023-12-23T06:15:20.000Z,279.16
2023-12-23T06:16:46.000Z,279.22
2023-12-23T06:18:52.000Z,279.24
2023-12-23T06:20:19.000Z,279.35
2023-12-23T06:22:25.000Z,279.42
2023-12-23T06:23:51.000Z,279.47
2023-12-23T06:25:57.000Z,279.45
2023-12-23T06:27:24.000Z,279.47
2023-12-23T06:29:31.000Z,279.52
2023-12-23T06:32:16.000Z,279.54
2023-12-23T06:33:42.000Z,279.56
2023-12-23T06:35:49.000Z,279.62
2023-12-23T06:37:15.000Z,279.66
2023-12-23T06:39:22.000Z,279.66
2023-12-23T06:40:48.000Z,279.7
2023-12-23T06:42:54.000Z,279.69
2023-12-23T06:44:21.000Z,279.67
2023-12-23T06:46:27.000Z,279.67
2023-12-23T06:47:54.000Z,279.66
2023-12-23T06:50:00.000Z,279.66
2023-12-23T06:51:27.000Z,279.65
2023-12-23T06:53:33.000Z,279.63
2023-12-23T06:55:00.000Z,279.73
2023-12-23T06:57:06.000Z,279.74
2023-12-23T06:58:32.000Z,279.76
2023-12-23T07:00:39.000Z,279.73
2023-12-23T07:02:05.000Z,279.76
2023-12-23T07:04:12.000Z,279.76
2023-12-23T07:05:39.000Z,279.81
2023-12-23T07:07:45.000Z,279.81
2023-12-23T07:10:30.000Z,279.81
2023-12-23T07:11:57.000Z,279.81
2023-12-23T07:14:03.000Z,279.81
2023-12-23T07:15:30.000Z,279.8
2023-12-23T07:17:36.000Z,279.81
2023-12-23T07:19:08.000Z,279.82
2023-12-23T07:21:14.000Z,279.85
2023-12-23T07:22:41.000Z,279.85
2023-12-23T07:24:47.000Z,279.92
2023-12-23T07:26:14.000Z,279.93
2023-12-23T07:28:20.000Z,279.91
2023-12-23T07:29:47.000Z,279.89
2023-12-23T07:31:54.000Z,279.89
2023-12-23T07:33:20.000Z,279.89
2023-12-23T07:35:27.000Z,279.91
2023-12-23T07:36:53.000Z,279.93
2023-12-23T07:38:59.000Z,279.98
2023-12-23T07:40:26.000Z,279.96
2023-12-23T07:42:37.000Z,279.98
2023-12-23T07:44:03.000Z,279.96
2023-12-23T07:46:10.000Z,279.98
2023-12-23T07:48:55.000Z,280
2023-12-23T07:50:21.000Z,280.03
2023-12-23T07:52:28.000Z,280.05
2023-12-23T07:53:54.000Z,280.05
2023-12-23T07:56:01.000Z,280.06
2023-12-23T07:57:27.000Z,280.03
2023-12-23T07:59:34.000Z,280.09
2023-12-23T08:01:00.000Z,280.12
2023-12-23T08:03:07.000Z,280.12
2023-12-23T08:04:33.000Z,280.16
2023-12-23T08:06:39.000Z,280.16
2023-12-23T08:08:06.000Z,280.16
2023-12-23T08:10:12.000Z,280.14
2023-12-23T08:11:39.000Z,280.12
2023-12-23T08:13:45.000Z,280.13
2023-12-23T08:15:12.000Z,280.21
2023-12-23T08:17:18.000Z,280.24
2023-12-23T08:18:44.000Z,280.27
2023-12-23T08:20:51.000Z,280.25
2023-12-23T08:22:17.000Z,280.27
2023-12-23T08:24:23.000Z,280.31
2023-12-23T08:27:09.000Z,280.32
2023-12-23T08:28:35.000Z,280.34
2023-12-23T08:30:41.000Z,280.32
2023-12-23T08:32:08.000Z,280.32
2023-12-23T08:34:14.000Z,280.34
2023-12-23T08:35:41.000Z,280.35
2023-12-23T08:37:49.000Z,280.35
2023-12-23T08:39:16.000Z,280.37
2023-12-23T08:41:22.000Z,280.4
2023-12-23T08:42:49.000Z,280.42
2023-12-23T08:44:55.000Z,280.43
2023-12-23T08:46:22.000Z,280.43
2023-12-23T08:48:28.000Z,280.43
2023-12-23T08:49:55.000Z,280.42
2023-12-23T08:52:01.000Z,280.45
2023-12-23T08:53:27.000Z,280.45
2023-12-23T08:55:33.000Z,280.45
2023-12-23T08:57:00.000Z,280.43
2023-12-23T08:59:06.000Z,280.42
2023-12-23T09:00:33.000Z,280.42
2023-12-23T09:02:39.000Z,280.42
2023-12-23T09:05:24.000Z,280.42
2023-12-23T09:06:51.000Z,280.4
2023-12-23T09:08:57.000Z,280.43
2023-12-23T09:10:24.000Z,280.43
2023-12-23T09:12:31.000Z,280.45
2023-12-23T09:13:57.000Z,280.43
2023-12-23T09:16:03.000Z,280.42
2023-12-23T09:17:30.000Z,280.4
2023-12-23T09:19:40.000Z,280.42
2023-12-23T09:21:06.000Z,280.42
2023-12-23T09:23:13.000Z,280.43
2023-12-23T09:24:39.000Z,280.47
2023-12-23T09:26:45.000Z,280.47
2023-12-23T09:28:12.000Z,280.47
2023-12-23T09:30:18.000Z,280.5
2023-12-23T09:31:44.000Z,280.51
2023-12-23T09:33:51.000Z,280.51
2023-12-23T09:35:17.000Z,280.49
2023-12-23T09:37:23.000Z,280.49
2023-12-23T09:38:50.000Z,280.5
2023-12-23T09:40:56.000Z,280.51
2023-12-23T09:43:41.000Z,280.51
2023-12-23T09:45:08.000Z,280.51
2023-12-23T09:47:14.000Z,280.57
2023-12-23T09:48:41.000Z,280.56
2023-12-23T09:50:48.000Z,280.56
2023-12-23T09:52:14.000Z,280.59
2023-12-23T09:54:20.000Z,280.62
2023-12-23T09:55:47.000Z,280.64
2023-12-23T09:57:53.000Z,280.64
2023-12-23T09:59:20.000Z,280.65
2023-12-23T10:01:27.000Z,280.65
2023-12-23T10:02:53.000Z,280.68
2023-12-23T10:05:00.000Z,280.69
2023-12-23T10:06:27.000Z,280.71
2023-12-23T10:08:33.000Z,280.72
2023-12-23T10:09:59.000Z,280.72
2023-12-23T10:12:07.000Z,280.75
2023-12-23T10:13:33.000Z,280.76
2023-12-23T10:15:39.000Z,280.79
2023-12-23T10:17:06.000Z,280.82
2023-12-23T10:19:13.000Z,280.83
2023-12-23T10:21:59.000Z,280.83
2023-12-23T10:23:30.000Z,280.84
2023-12-23T10:25:37.000Z,280.83
2023-12-23T10:27:03.000Z,280.86
2023-12-23T10:29:09.000Z,280.87
2023-12-23T10:30:36.000Z,280.87
2023-12-23T10:32:42.000Z,280.9
2023-12-23T10:34:09.000Z,280.91
2023-12-23T10:36:15.000Z,280.91
2023-12-23T10:37:42.000Z,280.9
2023-12-23T10:39:48.000Z,280.93
2023-12-23T10:41:14.000Z,280.96
2023-12-23T10:43:21.000Z,280.94
2023-12-23T10:44:47.000Z,280.93
2023-12-23T10:46:54.000Z,280.93
2023-12-23T10:48:21.000Z,280.93
2023-12-23T10:50:27.000Z,280.93
2023-12-23T10:51:53.000Z,280.94
2023-12-23T10:54:00.000Z,280.96
2023-12-23T10:55:26.000Z,280.94
2023-12-23T10:57:32.000Z,280.96
2023-12-23T11:00:18.000Z,280.96
2023-12-23T11:01:44.000Z,280.98
2023-12-23T11:03:50.000Z,280.97
2023-12-23T11:05:17.000Z,280.97
2023-12-23T11:07:23.000Z,281
2023-12-23T11:08:50.000Z,281
2023-12-23T11:10:56.000Z,280.98
2023-12-23T11:12:22.000Z,280.98
2023-12-23T11:14:29.000Z,281
2023-12-23T11:15:56.000Z,281.03
2023-12-23T11:18:02.000Z,281.03
2023-12-23T11:19:30.000Z,281.04
2023-12-23T11:21:36.000Z,281.05
2023-12-23T11:23:02.000Z,281.05
2023-12-23T11:25:09.000Z,281.04
2023-12-23T11:26:35.000Z,281.05
2023-12-23T11:28:41.000Z,281.04
2023-12-23T11:30:08.000Z,281.04
2023-12-23T11:32:14.000Z,281.07
2023-12-23T11:33:41.000Z,281.07
2023-12-23T11:35:48.000Z,281.04
2023-12-23T11:38:33.000Z,281.08
2023-12-23T11:40:00.000Z,281.07
2023-12-23T11:42:06.000Z,281.07
2023-12-23T11:43:33.000Z,281.07
2023-12-23T11:45:39.000Z,281.07
2023-12-23T11:47:05.000Z,281.1
2023-12-23T11:49:12.000Z,281.11
2023-12-23T11:50:38.000Z,281.12
2023-12-23T11:52:45.000Z,281.12
2023-12-23T11:54:11.000Z,281.12
2023-12-23T11:56:17.000Z,281.12
2023-12-23T11:57:44.000Z,281.12
2023-12-23T11:59:50.000Z,281.14
2023-12-23T12:01:17.000Z,281.1
2023-12-23T12:03:23.000Z,281.08
2023-12-23T12:04:50.000Z,281.08
2023-12-23T12:06:56.000Z,281.08
2023-12-23T12:08:22.000Z,281.1
2023-12-23T12:10:29.000Z,281.1
2023-12-23T12:11:55.000Z,281.11
2023-12-23T12:14:02.000Z,281.08
2023-12-23T12:16:48.000Z,281.07
2023-12-23T12:18:14.000Z,281.08
2023-12-23T12:20:21.000Z,281.05
2023-12-23T12:21:47.000Z,281.07
2023-12-23T12:23:53.000Z,281.05
2023-12-23T12:25:20.000Z,281.05
2023-12-23T12:27:26.000Z,281.05
2023-12-23T12:28:53.000Z,281.03
2023-12-23T12:30:59.000Z,281.04
2023-12-23T12:32:25.000Z,281.05
2023-12-23T12:34:32.000Z,281.08
2023-12-23T12:35:59.000Z,281.1
2023-12-23T12:38:05.000Z,281.07
2023-12-23T12:39:46.000Z,281.08
2023-12-23T12:41:52.000Z,281.1
2023-12-23T12:43:19.000Z,281.11
2023-12-23T12:45:25.000Z,281.1
2023-12-23T12:46:51.000Z,281.08
2023-12-23T12:48:57.000Z,281.11
2023-12-23T12:50:24.000Z,281.1
2023-12-23T12:52:30.000Z,281.1
2023-12-23T12:55:16.000Z,281.16
2023-12-23T12:56:42.000Z,281.15
2023-12-23T12:58:48.000Z,281.18
2023-12-23T13:00:15.000Z,281.18
2023-12-23T13:02:21.000Z,281.25
2023-12-23T13:03:47.000Z,281.23
2023-12-23T13:05:54.000Z,281.21
2023-12-23T13:07:21.000Z,281.19
2023-12-23T13:09:27.000Z,281.15
2023-12-23T13:10:53.000Z,281.12
2023-12-23T13:13:00.000Z,281.11
2023-12-23T13:14:26.000Z,281.1
2023-12-23T13:16:33.000Z,281.05
2023-12-23T13:17:59.000Z,281.05
2023-12-23T13:20:06.000Z,281.04
2023-12-23T13:21:32.000Z,281.03
2023-12-23T13:23:39.000Z,281.01
2023-12-23T13:25:05.000Z,281.03
2023-12-23T13:27:12.000Z,281.03
2023-12-23T13:28:38.000Z,281.03
2023-12-23T13:30:44.000Z,281.03
2023-12-23T13:33:29.000Z,281.03
2023-12-23T13:34:56.000Z,281.03
2023-12-23T13:37:03.000Z,281.01
2023-12-23T13:38:30.000Z,281.03
2023-12-23T13:40:36.000Z,281.04
2023-12-23T13:42:02.000Z,281.05
2023-12-23T13:44:08.000Z,281.07
2023-12-23T13:45:35.000Z,281.05
2023-12-23T13:47:41.000Z,281.04
2023-12-23T13:49:08.000Z,281.07
2023-12-23T13:51:14.000Z,281.07
2023-12-23T13:52:41.000Z,281.05
2023-12-23T13:54:47.000Z,281.08
2023-12-23T13:56:13.000Z,281.07
2023-12-23T13:58:20.000Z,281.05
2023-12-23T13:59:46.000Z,281.04
2023-12-23T14:01:52.000Z,281.04
2023-12-23T14:03:19.000Z,281.03
2023-12-23T14:05:25.000Z,281.03
2023-12-23T14:06:52.000Z,281.01
2023-12-23T14:08:58.000Z,281.01
2023-12-23T14:11:43.000Z,281.03
2023-12-23T14:13:10.000Z,281.03
2023-12-23T14:15:16.000Z,281.04
2023-12-23T14:16:42.000Z,281.05
2023-12-23T14:18:49.000Z,281.07
2023-12-23T14:20:15.000Z,281.07
2023-12-23T14:22:21.000Z,281.05
2023-12-23T14:23:48.000Z,281.05
2023-12-23T14:25:54.000Z,281.07
2023-12-23T14:27:21.000Z,281.07
2023-12-23T14:29:27.000Z,281.07
2023-12-23T14:30:54.000Z,281.05
2023-12-23T14:33:00.000Z,281.08
2023-12-23T14:34:27.000Z,281.07
2023-12-23T14:36:33.000Z,281.05
2023-12-23T14:38:00.000Z,281.05
2023-12-23T14:40:06.000Z,281.03
2023-12-23T14:41:33.000Z,281.04
2023-12-23T14:43:39.000Z,281.08
2023-12-23T14:45:05.000Z,281.08
2023-12-23T14:47:12.000Z,281.07
2023-12-23T14:49:57.000Z,281.03
2023-12-23T14:51:24.000Z,281.01
2023-12-23T14:53:30.000Z,281.03
2023-12-23T14:54:56.000Z,281
2023-12-23T14:57:03.000Z,280.96
2023-12-23T14:58:29.000Z,280.94
2023-12-23T15:00:36.000Z,280.94
2023-12-23T15:02:02.000Z,280.93
2023-12-23T15:04:08.000Z,280.94
2023-12-23T15:05:35.000Z,280.93
2023-12-23T15:07:41.000Z,280.91
2023-12-23T15:09:08.000Z,280.91
2023-12-23T15:11:14.000Z,280.94
2023-12-23T15:12:41.000Z,280.93
2023-12-23T15:14:47.000Z,280.93
2023-12-23T15:16:13.000Z,280.94
2023-12-23T15:18:19.000Z,280.94
2023-12-23T15:19:46.000Z,280.93
2023-12-23T15:21:52.000Z,280.93
2023-12-23T15:23:19.000Z,280.97
2023-12-23T15:25:25.000Z,280.96
2023-12-23T15:28:11.000Z,280.93
2023-12-23T15:29:37.000Z,280.91
2023-12-23T15:31:44.000Z,280.9
2023-12-23T15:33:10.000Z,280.9
2023-12-23T15:35:17.000Z,280.91
2023-12-23T15:36:43.000Z,280.9
2023-12-23T15:38:50.000Z,280.87
2023-12-23T15:40:16.000Z,280.83
2023-12-23T15:42:22.000Z,280.86
2023-12-23T15:43:49.000Z,280.86
2023-12-23T15:45:55.000Z,280.89
2023-12-23T15:47:21.000Z,280.89
2023-12-23T15:49:28.000Z,280.89
2023-12-23T15:50:54.000Z,280.87
2023-12-23T15:53:00.000Z,280.87
2023-12-23T15:54:27.000Z,280.87
2023-12-23T15:56:33.000Z,280.86
2023-12-23T15:57:59.000Z,280.87
2023-12-23T16:00:06.000Z,280.86
2023-12-23T16:01:32.000Z,280.86
2023-12-23T16:03:38.000Z,280.87
2023-12-23T16:06:24.000Z,280.87
2023-12-23T16:07:50.000Z,280.86
2023-12-23T16:09:57.000Z,280.87
2023-12-23T16:11:23.000Z,280.87
2023-12-23T16:13:30.000Z,280.86
2023-12-23T16:14:56.000Z,280.84
2023-12-23T16:17:03.000Z,280.89
2023-12-23T16:18:29.000Z,280.89
2023-12-23T16:20:35.000Z,280.91
2023-12-23T16:22:03.000Z,280.93
2023-12-23T16:24:09.000Z,280.93
2023-12-23T16:25:35.000Z,280.91
2023-12-23T16:27:42.000Z,280.91
2023-12-23T16:29:08.000Z,280.93
2023-12-23T16:31:15.000Z,280.91
2023-12-23T16:32:41.000Z,280.89
2023-12-23T16:34:48.000Z,280.84
2023-12-23T16:36:15.000Z,280.82
2023-12-23T16:38:21.000Z,280.8
2023-12-23T16:39:47.000Z,280.79
2023-12-23T16:41:54.000Z,280.79
2023-12-23T16:44:40.000Z,280.8
2023-12-23T16:46:06.000Z,280.82
2023-12-23T16:48:12.000Z,280.83
2023-12-23T16:49:39.000Z,280.82
2023-12-23T16:51:48.000Z,280.8
2023-12-23T16:53:14.000Z,280.78
2023-12-23T16:55:21.000Z,280.75
2023-12-23T16:56:47.000Z,280.72
2023-12-23T16:58:53.000Z,280.71
2023-12-23T17:00:20.000Z,280.68
2023-12-23T17:02:27.000Z,280.68
2023-12-23T17:03:53.000Z,280.66
2023-12-23T17:06:00.000Z,280.65
2023-12-23T17:07:27.000Z,280.64
2023-12-23T17:09:33.000Z,280.64
2023-12-23T17:10:59.000Z,280.62
2023-12-23T17:13:05.000Z,280.62
2023-12-23T17:14:32.000Z,280.62
2023-12-23T17:16:38.000Z,280.61
2023-12-23T17:18:05.000Z,280.59
2023-12-23T17:20:11.000Z,280.56
2023-12-23T17:22:56.000Z,280.51
2023-12-23T17:24:23.000Z,280.53
2023-12-23T17:26:29.000Z,280.5
2023-12-23T17:27:55.000Z,280.5
2023-12-23T17:30:02.000Z,280.49
2023-12-23T17:31:29.000Z,280.49
2023-12-23T17:33:35.000Z,280.47
2023-12-23T17:35:02.000Z,280.46
2023-12-23T17:37:08.000Z,280.46
2023-12-23T17:38:35.000Z,280.45
2023-12-23T17:40:41.000Z,280.49
2023-12-23T17:42:08.000Z,280.51
2023-12-23T17:44:14.000Z,280.5
2023-12-23T17:45:41.000Z,280.49
2023-12-23T17:47:47.000Z,280.47
2023-12-23T17:49:14.000Z,280.49
2023-12-23T17:51:20.000Z,280.45
2023-12-23T17:52:47.000Z,280.43
2023-12-23T17:54:53.000Z,280.43
2023-12-23T17:56:19.000Z,280.42
2023-12-23T17:58:26.000Z,280.4
2023-12-23T18:01:11.000Z,280.4
2023-12-23T18:02:37.000Z,280.38
2023-12-23T18:04:44.000Z,280.4
2023-12-23T18:06:10.000Z,280.38
2023-12-23T18:08:16.000Z,280.38
2023-12-23T18:09:43.000Z,280.38
2023-12-23T18:11:49.000Z,280.4
2023-12-23T18:13:16.000Z,280.4
2023-12-23T18:15:22.000Z,280.37
2023-12-23T18:16:48.000Z,280.37
2023-12-23T18:18:54.000Z,280.37
2023-12-23T18:20:21.000Z,280.37
2023-12-23T18:22:27.000Z,280.37
2023-12-23T18:23:54.000Z,280.37
2023-12-23T18:26:00.000Z,280.38
2023-12-23T18:27:27.000Z,280.35
2023-12-23T18:29:33.000Z,280.35
2023-12-23T18:30:59.000Z,280.38
2023-12-23T18:33:06.000Z,280.37
2023-12-23T18:34:33.000Z,280.37
2023-12-23T18:36:39.000Z,280.37
2023-12-23T18:39:24.000Z,280.42
2023-12-23T18:40:51.000Z,280.43
2023-12-23T18:42:57.000Z,280.45
2023-12-23T18:44:23.000Z,280.46
2023-12-23T18:46:30.000Z,280.47
2023-12-23T18:47:56.000Z,280.47
2023-12-23T18:50:02.000Z,280.49
2023-12-23T18:51:29.000Z,280.47
2023-12-23T18:53:35.000Z,280.5
2023-12-23T18:55:02.000Z,280.5
2023-12-23T18:57:08.000Z,280.51
2023-12-23T18:58:34.000Z,280.54
2023-12-23T19:00:41.000Z,280.57
2023-12-23T19:02:07.000Z,280.59
2023-12-23T19:04:13.000Z,280.61
2023-12-23T19:05:40.000Z,280.62
2023-12-23T19:07:46.000Z,280.61
2023-12-23T19:09:13.000Z,280.62
2023-12-23T19:11:19.000Z,280.64
2023-12-23T19:12:45.000Z,280.64
2023-12-23T19:14:52.000Z,280.69
2023-12-23T19:17:37.000Z,280.68
2023-12-23T19:19:03.000Z,280.68
2023-12-23T19:21:10.000Z,280.68
2023-12-23T19:22:36.000Z,280.66
2023-12-23T19:24:42.000Z,280.66
2023-12-23T19:26:09.000Z,280.65
2023-12-23T19:28:15.000Z,280.66
2023-12-23T19:29:42.000Z,280.66
2023-12-23T19:31:48.000Z,280.68
2023-12-23T19:33:15.000Z,280.66
2023-12-23T19:35:22.000Z,280.68
2023-12-23T19:36:48.000Z,280.72
2023-12-23T19:38:54.000Z,280.72
2023-12-23T19:40:21.000Z,280.73
2023-12-23T19:42:27.000Z,280.75
2023-12-23T19:43:54.000Z,280.75
2023-12-23T19:46:00.000Z,280.76
2023-12-23T19:47:27.000Z,280.79
2023-12-23T19:49:33.000Z,280.78
2023-12-23T19:51:00.000Z,280.76
2023-12-23T19:53:06.000Z,280.76
2023-12-23T19:55:51.000Z,280.76
2023-12-23T19:57:18.000Z,280.78
2023-12-23T19:59:24.000Z,280.78
2023-12-23T20:00:51.000Z,280.8
2023-12-23T20:02:57.000Z,280.79
2023-12-23T20:04:23.000Z,280.79
2023-12-23T20:06:30.000Z,280.8
2023-12-23T20:07:56.000Z,280.79
2023-12-23T20:10:03.000Z,280.79
2023-12-23T20:11:29.000Z,280.8
2023-12-23T20:13:35.000Z,280.8
2023-12-23T20:15:02.000Z,280.8
2023-12-23T20:17:08.000Z,280.8
2023-12-23T20:18:35.000Z,280.83
2023-12-23T20:20:41.000Z,280.84
2023-12-23T20:22:08.000Z,280.82
2023-12-23T20:24:14.000Z,280.8
2023-12-23T20:25:40.000Z,280.8
2023-12-23T20:27:47.000Z,280.8
2023-12-23T20:29:13.000Z,280.79
2023-12-23T20:31:19.000Z,280.78
2023-12-23T20:34:05.000Z,280.73
2023-12-23T20:35:31.000Z,280.72
2023-12-23T20:37:38.000Z,280.71
2023-12-23T20:39:05.000Z,280.75
2023-12-23T20:41:11.000Z,280.76
2023-12-23T20:42:37.000Z,280.76
2023-12-23T20:44:44.000Z,280.75
2023-12-23T20:46:10.000Z,280.73
2023-12-23T20:48:16.000Z,280.73
2023-12-23T20:49:43.000Z,280.72
2023-12-23T20:51:49.000Z,280.73
2023-12-23T20:53:16.000Z,280.76
2023-12-23T20:55:22.000Z,280.73
2023-12-23T20:56:49.000Z,280.75
2023-12-23T20:58:55.000Z,280.75
2023-12-23T21:00:21.000Z,280.73
2023-12-23T21:02:29.000Z,280.75
2023-12-23T21:03:55.000Z,280.75
2023-12-23T21:06:01.000Z,280.75
2023-12-23T21:07:28.000Z,280.8
2023-12-23T21:09:34.000Z,280.91
2023-12-23T21:12:19.000Z,280.94
2023-12-23T21:13:46.000Z,280.93
2023-12-23T21:15:52.000Z,280.91
2023-12-23T21:17:19.000Z,280.89
2023-12-23T21:19:25.000Z,280.9
2023-12-23T21:20:52.000Z,280.89
2023-12-23T21:22:58.000Z,280.9
2023-12-23T21:24:25.000Z,280.89
2023-12-23T21:26:31.000Z,280.9
2023-12-23T21:27:58.000Z,280.91
2023-12-23T21:30:04.000Z,280.91
2023-12-23T21:31:31.000Z,280.91
2023-12-23T21:33:37.000Z,280.94
2023-12-23T21:35:03.000Z,280.94
2023-12-23T21:37:10.000Z,280.97
2023-12-23T21:38:36.000Z,280.98
2023-12-23T21:40:42.000Z,280.97
2023-12-23T21:42:13.000Z,280.96
2023-12-23T21:44:19.000Z,280.97
2023-12-23T21:45:46.000Z,280.97
2023-12-23T21:47:52.000Z,280.97
2023-12-23T21:50:42.000Z,280.96
2023-12-23T21:52:08.000Z,281.03
2023-12-23T21:54:15.000Z,281.04
2023-12-23T21:55:41.000Z,281.05
2023-12-23T21:57:47.000Z,281.07
2023-12-23T21:59:14.000Z,281.1
2023-12-23T22:01:20.000Z,281.11
2023-12-23T22:02:47.000Z,281.14
2023-12-23T22:04:53.000Z,281.15
2023-12-23T22:06:20.000Z,281.1
2023-12-23T22:08:26.000Z,281.07
2023-12-23T22:09:53.000Z,281.08
2023-12-23T22:11:59.000Z,281.08
2023-12-23T22:13:25.000Z,281.08
2023-12-23T22:15:32.000Z,281.08
2023-12-23T22:16:58.000Z,281.05
2023-12-23T22:19:05.000Z,281.04
2023-12-23T22:20:31.000Z,281.01
2023-12-23T22:22:38.000Z,281.05
2023-12-23T22:24:04.000Z,281.03
2023-12-23T22:26:10.000Z,281.03
2023-12-23T22:28:55.000Z,281.07
2023-12-23T22:30:22.000Z,281.08
2023-12-23T22:32:28.000Z,281.07
2023-12-23T22:33:55.000Z,281.07
2023-12-23T22:36:01.000Z,281.05
2023-12-23T22:37:28.000Z,281.05
2023-12-23T22:39:34.000Z,281.07
2023-12-23T22:41:01.000Z,281.05
2023-12-23T22:43:11.000Z,281.05
2023-12-23T22:44:38.000Z,281.05
2023-12-23T22:46:44.000Z,281.01
2023-12-23T22:48:10.000Z,281.01
2023-12-23T22:50:17.000Z,281.01